Time;durP1;ratioP1;P1;durP2;ratioP2;P2;SDS_P1;SDS_P2;PMS_P1;PMS_P2;Temp;Humidity;BMP_temperature;BMP_pressure;BME280_temperature;BME280_humidity;BME280_pressure;Samples;Min_cycle;Max_cycle;Signal;HPM_P1;HPM_P2
2022/11/07 00:01:30;;;;;;;7.45;3.58;;;;;;;10.38;100.00;163277.34;5072656;28;20483;-61
2022/11/07 00:03:56;;;;;;;7.20;4.55;;;;;;;10.35;100.00;163270.56;5073154;28;20025;-62
2022/11/07 00:06:21;;;;;;;6.07;5.05;;;;;;;10.31;100.00;163259.78;5072349;28;20087;-62
2022/11/07 00:08:48;;;;;;;8.63;5.13;;;;;;;10.28;100.00;163251.66;5073135;28;20475;-62
2022/11/07 00:11:13;;;;;;;14.48;4.25;;;;;;;10.24;100.00;163242.22;5072819;28;20025;-59
2022/11/07 00:13:38;;;;;;;9.90;4.85;;;;;;;10.23;100.00;163238.19;5073262;28;20031;-62
2022/11/07 00:16:07;;;;;;;5.82;3.95;;;;;;;10.24;100.00;163240.91;5073407;28;20032;-62
2022/11/07 00:18:32;;;;;;;5.53;4.88;;;;;;;10.24;100.00;163242.22;5071849;28;20052;-61
2022/11/07 00:21:02;;;;;;;7.57;4.40;;;;;;;10.27;100.00;163248.97;5073691;28;20081;-61
2022/11/07 00:23:28;;;;;;;5.63;3.42;;;;;;;10.28;100.00;163253.00;5071908;28;20037;-62
2022/11/07 00:25:53;;;;;;;8.00;3.78;;;;;;;10.31;100.00;163259.78;5072893;28;20021;-62
2022/11/07 00:28:18;;;;;;;10.93;5.70;;;;;;;10.36;100.00;163271.91;5072115;28;20045;-62
2022/11/07 00:30:44;;;;;;;10.48;4.57;;;;;;;10.34;100.00;163267.84;5072999;28;20032;-62
2022/11/07 00:33:09;;;;;;;7.78;4.82;;;;;;;10.32;100.00;163263.81;5071738;28;20041;-62
2022/11/07 00:35:39;;;;;;;10.88;4.57;;;;;;;10.43;100.00;163292.22;5073197;28;20017;-62
2022/11/07 00:38:04;;;;;;;5.82;3.80;;;;;;;10.47;100.00;163301.66;5071332;28;20056;-62
2022/11/07 00:40:29;;;;;;;7.35;3.22;;;;;;;10.45;100.00;163297.63;5072497;28;20025;-63
2022/11/07 00:42:55;;;;;;;16.77;6.20;;;;;;;10.42;100.00;163289.50;5071051;28;20040;-62
2022/11/07 00:45:20;;;;;;;10.10;4.50;;;;;;;10.43;100.00;163290.84;5073334;28;20028;-63
2022/11/07 00:47:45;;;;;;;9.00;5.25;;;;;;;10.42;100.00;163289.50;5070927;28;20048;-63
2022/11/07 00:50:11;;;;;;;6.80;4.22;;;;;;;10.37;100.00;163274.66;5073349;28;20027;-63
2022/11/07 00:52:36;;;;;;;8.38;4.15;;;;;;;10.27;100.00;163248.97;5071278;28;20041;-63
2022/11/07 00:55:01;;;;;;;13.98;6.30;;;;;;;10.25;100.00;163244.94;5072459;28;20560;-63
2022/11/07 00:57:27;;;;;;;9.45;4.40;;;;;;;10.21;100.00;163232.78;5071558;28;20406;-62
2022/11/07 00:59:52;;;;;;;7.88;4.38;;;;;;;10.19;100.00;163227.38;5072863;28;20483;-63
2022/11/07 01:02:17;;;;;;;13.80;5.63;;;;;;;10.23;100.00;163239.53;5070810;28;20048;-63
2022/11/07 01:07:26;;;;;;;15.70;4.75;;;;;;;10.23;100.00;163239.53;5071182;28;20047;-63
2022/11/07 01:09:52;;;;;;;8.88;4.32;;;;;;;10.20;100.00;163230.06;5071988;28;20024;-63
2022/11/07 01:12:17;;;;;;;9.70;4.13;;;;;;;10.15;100.00;163217.91;5071270;28;20052;-63
2022/11/07 01:14:42;;;;;;;7.80;4.82;;;;;;;10.14;100.00;163216.59;5072431;28;20028;-63
2022/11/07 01:17:08;;;;;;;5.82;4.22;;;;;;;10.13;100.00;163212.50;5070680;28;20437;-63
2022/11/07 01:19:33;;;;;;;6.18;4.32;;;;;;;10.21;100.00;163234.09;5072408;28;20024;-63
2022/11/07 01:21:58;;;;;;;7.55;3.63;;;;;;;10.20;100.00;163230.06;5070472;28;20052;-63
2022/11/07 01:24:24;;;;;;;9.95;4.72;;;;;;;10.27;100.00;163248.97;5072064;28;20070;-64
2022/11/07 01:26:50;;;;;;;9.35;4.40;;;;;;;10.22;100.00;163235.47;5070119;28;20047;-63
2022/11/07 01:29:17;;;;;;;9.82;5.22;;;;;;;10.35;100.00;163270.56;5072451;28;20394;-63
2022/11/07 01:31:43;;;;;;;11.55;4.93;;;;;;;10.40;100.00;163282.78;5070464;28;20071;-64
2022/11/07 01:34:08;;;;;;;5.90;4.35;;;;;;;10.41;100.00;163285.47;5072051;28;20394;-63
2022/11/07 01:36:34;;;;;;;7.10;4.82;;;;;;;10.44;100.00;163293.53;5070515;28;20036;-63
2022/11/07 01:38:59;;;;;;;21.60;4.70;;;;;;;10.43;100.00;163292.22;5071071;28;20074;-63
2022/11/07 01:41:29;;;;;;;17.88;4.57;;;;;;;10.49;100.00;163307.06;5070750;28;20086;-62
2022/11/07 01:44:01;;;;;;;7.68;4.43;;;;;;;10.57;100.00;163327.28;5071654;28;20701;-63
2022/11/07 01:46:33;;;;;;;7.90;4.95;;;;;;;10.54;100.00;163319.19;5070081;28;20060;-63
2022/11/07 01:49:08;;;;;;;17.45;6.30;;;;;;;10.59;100.00;163332.72;5071879;28;20012;-63
2022/11/07 01:51:43;;;;;;;8.45;5.10;;;;;;;10.59;100.00;163334.03;5069889;28;20437;-63
2022/11/07 01:54:10;;;;;;;11.63;4.70;;;;;;;10.62;100.00;163340.78;5071247;28;20040;-63
2022/11/07 01:56:38;;;;;;;9.50;3.35;;;;;;;10.63;100.00;163343.50;5068553;28;20105;-63
2022/11/07 01:59:05;;;;;;;15.35;6.68;;;;;;;10.60;100.00;163335.41;5069485;28;20032;-64
2022/11/07 02:01:30;;;;;;;7.22;4.53;;;;;;;10.53;100.00;163316.53;5069730;28;20075;-63
2022/11/07 02:03:57;;;;;;;7.05;4.15;;;;;;;10.48;100.00;163305.69;5071447;28;20056;-64
2022/11/07 02:06:31;;;;;;;7.90;3.97;;;;;;;10.50;100.00;163308.41;5069668;28;20063;-64
2022/11/07 02:08:56;;;;;;;7.55;4.93;;;;;;;10.47;100.00;163301.66;5071109;28;20024;-64
2022/11/07 02:11:22;;;;;;;10.48;4.47;;;;;;;10.55;100.00;163323.25;5070166;28;20029;-64
2022/11/07 02:13:48;;;;;;;8.85;4.75;;;;;;;10.58;100.00;163330.00;5070933;28;20063;-64
2022/11/07 02:16:13;;;;;;;6.32;3.83;;;;;;;10.62;100.00;163340.78;5069762;28;20639;-63
2022/11/07 02:18:42;;;;;;;11.10;3.42;;;;;;;10.62;100.00;163342.16;5070987;28;20016;-64
2022/11/07 02:21:28;;;;;;;10.75;4.32;;;;;;;10.59;100.00;163334.03;5069737;28;20032;-63
2022/11/07 02:24:04;;;;;;;6.95;4.55;;;;;;;10.60;100.00;163335.41;5070666;28;20642;-64
2022/11/07 02:26:30;;;;;;;13.98;3.97;;;;;;;10.64;100.00;163346.19;5069576;28;20119;-64
2022/11/07 02:28:57;;;;;;;14.88;5.55;;;;;;;10.63;100.00;163343.50;5071066;28;20578;-64
2022/11/07 02:31:22;;;;;;;12.50;4.90;;;;;;;10.69;100.00;163359.66;5069330;28;20021;-64
2022/11/07 02:33:47;;;;;;;18.58;5.90;;;;;;;10.75;100.00;163375.91;5070896;28;20070;-64
2022/11/07 02:36:16;;;;;;;9.82;4.88;;;;;;;10.77;100.00;163379.94;5069364;28;20028;-64
2022/11/07 02:38:43;;;;;;;5.95;4.30;;;;;;;10.77;100.00;163379.94;5070692;28;20574;-64
2022/11/07 02:41:18;;;;;;;8.93;4.32;;;;;;;10.76;100.00;163378.56;5069717;28;20382;-63
2022/11/07 02:43:53;;;;;;;12.32;5.07;;;;;;;10.75;100.00;163374.53;5070513;28;20036;-64
2022/11/07 02:46:21;;;;;;;5.25;3.92;;;;;;;10.80;100.00;163388.03;5069121;28;20054;-64
2022/11/07 02:48:50;;;;;;;14.57;5.07;;;;;;;10.76;100.00;163378.56;5069985;28;20074;-63
2022/11/07 02:51:15;;;;;;;10.00;3.50;;;;;;;10.75;100.00;163374.53;5069803;28;20017;-63
2022/11/07 02:53:41;;;;;;;11.77;5.18;;;;;;;10.75;100.00;163375.91;5070393;28;20497;-63
2022/11/07 02:56:07;;;;;;;12.77;4.88;;;;;;;10.69;100.00;163359.66;5069547;28;20041;-63
2022/11/07 02:58:33;;;;;;;10.15;4.70;;;;;;;10.67;100.00;163354.31;5071001;28;20017;-63
2022/11/07 03:01:07;;;;;;;8.25;4.22;;;;;;;10.64;100.00;163346.19;5070084;28;20107;-64
2022/11/07 03:03:38;;;;;;;10.95;4.28;;;;;;;10.64;100.00;163346.19;5069027;28;20040;-64
2022/11/07 03:06:04;;;;;;;7.57;5.82;;;;;;;10.58;100.00;163330.00;5070835;28;20067;-64
2022/11/07 03:08:29;;;;;;;8.13;4.05;;;;;;;10.59;100.00;163334.03;5068897;28;20521;-62
2022/11/07 03:10:54;;;;;;;12.45;4.90;;;;;;;10.56;100.00;163324.59;5070580;28;20028;-62
2022/11/07 03:13:20;;;;;;;16.30;5.53;;;;;;;10.50;100.00;163308.41;5068703;28;20055;-61
2022/11/07 03:15:45;;;;;;;5.15;4.65;;;;;;;10.45;100.00;163297.63;5070240;28;20107;-61
2022/11/07 03:18:10;;;;;;;11.98;4.78;;;;;;;10.35;100.00;163270.56;5069299;28;20043;-62
2022/11/07 03:20:36;;;;;;;11.52;6.70;;;;;;;10.38;100.00;163278.72;5070326;28;20437;-61
2022/11/07 03:23:01;;;;;;;11.13;7.20;;;;;;;10.42;100.00;163289.50;5068876;28;20037;-62
2022/11/07 03:25:26;;;;;;;16.27;5.68;;;;;;;10.47;100.00;163301.66;5070340;28;20479;-62
2022/11/07 03:27:52;;;;;;;11.18;4.90;;;;;;;10.50;100.00;163308.41;5068692;28;20233;-62
2022/11/07 03:30:17;;;;;;;10.27;5.47;;;;;;;10.53;100.00;163316.53;5070600;28;20028;-62
2022/11/07 03:32:43;;;;;;;10.10;4.57;;;;;;;10.47;100.00;163303.00;5068905;28;20075;-62
2022/11/07 03:35:09;;;;;;;11.82;5.05;;;;;;;10.48;100.00;163304.38;5070541;28;20032;-62
2022/11/07 03:37:34;;;;;;;8.63;5.20;;;;;;;10.51;100.00;163311.09;5068809;28;20112;-62
2022/11/07 03:40:00;;;;;;;12.77;5.47;;;;;;;10.53;100.00;163317.84;5070080;28;20031;-62
2022/11/07 03:42:25;;;;;;;8.32;4.55;;;;;;;10.51;100.00;163311.09;5068946;28;20047;-62
2022/11/07 03:44:50;;;;;;;19.38;7.55;;;;;;;10.51;100.00;163311.09;5070036;28;20383;-62
2022/11/07 03:47:16;;;;;;;7.93;4.72;;;;;;;10.52;100.00;163313.81;5068610;28;20040;-63
2022/11/07 03:49:41;;;;;;;10.25;4.00;;;;;;;10.39;100.00;163281.38;5070284;28;20029;-62
2022/11/07 03:52:06;;;;;;;8.25;4.72;;;;;;;10.35;100.00;163270.56;5068507;28;20031;-63
2022/11/07 03:54:32;;;;;;;15.65;5.47;;;;;;;10.40;100.00;163284.09;5069913;28;20048;-63
2022/11/07 03:56:57;;;;;;;13.15;5.97;;;;;;;10.31;100.00;163261.13;5068553;28;20024;-63
2022/11/07 03:59:23;;;;;;;7.43;4.55;;;;;;;10.24;100.00;163240.91;5070242;28;20081;-63
2022/11/07 04:01:48;;;;;;;8.25;4.72;;;;;;;10.14;100.00;163216.59;5069729;28;20031;-63
2022/11/07 04:04:13;;;;;;;12.25;4.97;;;;;;;9.98;100.00;163174.72;5068659;28;20092;-63
2022/11/07 04:06:39;;;;;;;9.90;4.35;;;;;;;9.92;100.00;163157.22;5069122;28;20044;-64
2022/11/07 04:09:04;;;;;;;11.95;4.75;;;;;;;9.89;100.00;163149.09;5068381;28;20045;-65
2022/11/07 04:19:41;;;;;;;11.40;6.75;;;;;;;9.91;100.00;163154.50;5073165;28;20036;-64
2022/11/07 04:22:06;;;;;;;14.68;7.72;;;;;;;9.93;100.00;163159.94;5071767;28;20024;-64
2022/11/07 04:24:32;;;;;;;8.20;6.18;;;;;;;10.04;100.00;163188.25;5073137;28;20467;-64
2022/11/07 04:29:41;;;;;;;22.08;7.38;;;;;;;10.29;100.00;163254.38;5072921;28;20039;-65
2022/11/07 04:32:06;;;;;;;15.13;5.20;;;;;;;10.35;100.00;163270.56;5071713;28;20407;-65
2022/11/07 04:34:32;;;;;;;24.30;6.72;;;;;;;10.29;100.00;163254.38;5073461;28;20036;-65
2022/11/07 04:36:57;;;;;;;13.68;6.45;;;;;;;10.44;100.00;163294.91;5070780;28;20041;-65
2022/11/07 04:39:22;;;;;;;17.95;5.65;;;;;;;10.54;100.00;163320.56;5073269;28;20394;-65
2022/11/07 04:41:48;;;;;;;18.02;7.40;;;;;;;10.60;100.00;163335.41;5071485;28;20036;-65
2022/11/07 04:44:13;;;;;;;11.40;5.63;;;;;;;10.65;100.00;163348.91;5072871;28;20094;-65
2022/11/07 04:46:38;;;;;;;12.05;5.15;;;;;;;10.64;100.00;163346.19;5071013;28;20036;-64
2022/11/07 04:49:04;;;;;;;13.38;5.03;;;;;;;10.64;100.00;163346.19;5072821;28;20471;-65
2022/11/07 04:51:29;;;;;;;7.30;4.78;;;;;;;10.66;100.00;163351.59;5070972;28;20045;-65
2022/11/07 04:53:55;;;;;;;11.10;3.85;;;;;;;10.70;100.00;163362.38;5072464;28;20020;-65
2022/11/07 04:56:20;;;;;;;22.85;4.97;;;;;;;10.68;100.00;163357.03;5071292;28;20024;-65
2022/11/07 04:58:45;;;;;;;13.35;6.40;;;;;;;10.72;100.00;163367.78;5072433;28;20364;-65
2022/11/07 05:01:11;;;;;;;14.75;5.03;;;;;;;10.75;100.00;163375.91;5071353;28;20047;-64
2022/11/07 05:03:36;;;;;;;18.88;5.85;;;;;;;10.69;100.00;163359.66;5072191;28;20025;-65
2022/11/07 05:06:03;;;;;;;13.40;4.22;;;;;;;10.73;100.00;163370.50;5071901;28;20033;-64
2022/11/07 05:08:29;;;;;;;8.23;4.40;;;;;;;10.82;100.00;163392.09;5071015;28;20037;-65
2022/11/07 05:10:54;;;;;;;14.15;5.28;;;;;;;10.86;100.00;163402.88;5072268;28;20036;-66
2022/11/07 05:13:20;;;;;;;8.02;4.75;;;;;;;10.85;100.00;163400.19;5069324;28;20048;-63
2022/11/07 05:15:45;;;;;;;26.33;6.30;;;;;;;10.86;100.00;163404.25;5071965;28;20035;-62
2022/11/07 05:18:11;;;;;;;14.57;4.47;;;;;;;10.71;100.00;163365.09;5069276;28;20040;-62
2022/11/07 05:20:38;;;;;;;14.07;6.13;;;;;;;10.77;100.00;163381.28;5071590;28;20408;-62
2022/11/07 05:23:14;;;;;;;11.63;4.55;;;;;;;10.75;100.00;163375.91;5070111;28;20234;-62
2022/11/07 05:25:45;;;;;;;16.70;5.15;;;;;;;10.72;100.00;163367.78;5054495;28;20468;-62
2022/11/07 05:28:12;;;;;;;16.83;6.68;;;;;;;10.66;100.00;163351.59;5067717;28;20051;-62
2022/11/07 05:30:41;;;;;;;13.18;6.05;;;;;;;10.56;100.00;163324.59;5072056;28;20025;-62
2022/11/07 05:33:09;;;;;;;16.90;5.35;;;;;;;10.53;100.00;163316.53;5053956;28;20059;-62
2022/11/07 05:35:34;;;;;;;13.38;4.57;;;;;;;10.57;100.00;163327.28;5051904;28;20029;-62
2022/11/07 05:38:00;;;;;;;23.88;7.90;;;;;;;10.57;100.00;163327.28;5050385;28;20561;-62
2022/11/07 05:40:25;;;;;;;22.13;4.75;;;;;;;10.61;100.00;163338.13;5054186;28;20406;-62
2022/11/07 05:42:50;;;;;;;12.82;4.57;;;;;;;10.59;100.00;163332.72;5064826;28;20048;-62
2022/11/07 05:45:16;;;;;;;14.93;3.60;;;;;;;10.57;100.00;163328.66;5070717;28;20023;-62
2022/11/07 05:47:41;;;;;;;18.52;6.63;;;;;;;10.60;100.00;163336.75;5070208;28;20495;-62
2022/11/07 05:50:07;;;;;;;9.20;3.55;;;;;;;10.65;100.00;163348.91;5071099;28;20032;-62
2022/11/07 05:52:32;;;;;;;15.38;5.15;;;;;;;10.69;100.00;163359.66;5070384;28;20177;-62
2022/11/07 05:54:57;;;;;;;17.63;4.85;;;;;;;10.73;100.00;163370.50;5071609;28;20028;-62
2022/11/07 05:57:23;;;;;;;15.55;6.50;;;;;;;10.73;100.00;163370.50;5069925;28;20036;-62
2022/11/07 05:59:48;;;;;;;8.45;4.22;;;;;;;10.83;100.00;163394.81;5071506;28;20028;-62
2022/11/07 06:02:13;;;;;;;13.63;6.43;;;;;;;10.79;100.00;163386.69;5070328;28;20036;-62
2022/11/07 06:04:39;;;;;;;8.27;4.15;;;;;;;10.81;100.00;163389.41;5071160;28;20467;-62
2022/11/07 06:07:04;;;;;;;29.88;6.15;;;;;;;10.77;100.00;163381.28;5069908;28;20045;-62
2022/11/07 06:09:29;;;;;;;17.58;7.07;;;;;;;10.82;100.00;163392.09;5071448;28;20020;-62
2022/11/07 06:11:55;;;;;;;18.27;4.55;;;;;;;10.86;100.00;163402.88;5069720;28;20090;-62
2022/11/07 06:14:20;;;;;;;11.85;5.18;;;;;;;10.87;100.00;163405.59;5071210;28;20544;-62
2022/11/07 06:16:45;;;;;;;14.73;5.32;;;;;;;10.88;100.00;163408.28;5069773;28;20032;-62
2022/11/07 06:19:11;;;;;;;11.38;4.07;;;;;;;10.90;100.00;163413.72;5071428;28;20024;-62
2022/11/07 06:21:36;;;;;;;7.88;3.75;;;;;;;10.92;100.00;163419.06;5069553;28;20047;-64
2022/11/07 06:24:01;;;;;;;20.98;6.15;;;;;;;10.89;100.00;163411.00;5071340;28;20032;-60
2022/11/07 06:26:27;;;;;;;12.45;5.50;;;;;;;10.93;100.00;163423.16;5069755;28;20040;-60
2022/11/07 06:28:52;;;;;;;21.98;5.55;;;;;;;10.98;100.00;163435.31;5070632;28;20028;-59
2022/11/07 06:31:18;;;;;;;22.58;8.00;;;;;;;10.97;100.00;163432.63;5069675;28;20029;-59
2022/11/07 06:33:43;;;;;;;13.07;6.45;;;;;;;11.01;100.00;163443.38;5070942;28;20039;-60
2022/11/07 06:36:11;;;;;;;11.10;4.45;;;;;;;11.00;100.00;163440.69;5070825;28;20035;-60
2022/11/07 06:38:37;;;;;;;10.40;3.58;;;;;;;10.99;100.00;163436.66;5068821;28;20041;-60
2022/11/07 06:41:07;;;;;;;9.93;3.65;;;;;;;10.98;100.00;163435.31;5071036;28;20032;-60
2022/11/07 06:43:33;;;;;;;10.60;4.82;;;;;;;10.94;100.00;163424.50;5069116;28;20487;-60
2022/11/07 06:46:02;;;;;;;14.73;4.63;;;;;;;10.89;100.00;163411.00;5070842;28;20025;-60
2022/11/07 06:48:28;;;;;;;15.82;5.78;;;;;;;10.90;100.00;163413.72;5069602;28;20093;-60
2022/11/07 06:51:00;;;;;;;7.32;4.22;;;;;;;10.88;100.00;163408.28;5070344;28;20433;-60
2022/11/07 06:53:26;;;;;;;20.98;5.90;;;;;;;10.88;100.00;163408.28;5069346;28;20110;-60
2022/11/07 06:55:53;;;;;;;16.50;6.07;;;;;;;10.90;100.00;163413.72;5070683;28;20605;-60
2022/11/07 06:58:18;;;;;;;5.38;3.85;;;;;;;10.77;100.00;163381.28;5069247;28;20461;-61
2022/11/07 07:00:44;;;;;;;10.88;4.75;;;;;;;10.90;100.00;163413.72;5070550;28;20107;-60
2022/11/07 07:03:10;;;;;;;15.70;6.13;;;;;;;10.89;100.00;163411.00;5069416;28;20059;-60
2022/11/07 07:05:35;;;;;;;13.32;4.50;;;;;;;10.86;100.00;163402.88;5070401;28;20028;-60
2022/11/07 07:08:01;;;;;;;20.42;5.80;;;;;;;10.78;100.00;163384.00;5068783;28;20461;-60
2022/11/07 07:10:27;;;;;;;20.20;5.95;;;;;;;10.86;100.00;163402.88;5070772;28;20036;-60
2022/11/07 07:12:52;;;;;;;12.50;5.68;;;;;;;10.87;100.00;163405.59;5068776;28;20066;-60
2022/11/07 07:15:18;;;;;;;19.25;5.03;;;;;;;10.95;100.00;163427.19;5070796;28;20063;-60
2022/11/07 07:17:43;;;;;;;14.93;5.25;;;;;;;11.02;100.00;163446.09;5068992;28;20040;-60
2022/11/07 07:20:09;;;;;;;16.25;4.65;;;;;;;11.07;100.00;163459.59;5070353;28;20375;-60
2022/11/07 07:22:34;;;;;;;11.15;4.22;;;;;;;11.08;100.00;163460.97;5069091;28;20036;-60
2022/11/07 07:25:00;;;;;;;14.50;4.22;;;;;;;11.11;100.00;163469.03;5070686;28;20032;-60
2022/11/07 07:27:25;;;;;;;21.15;5.07;;;;;;;11.15;100.00;163478.47;5065170;28;20507;-61
2022/11/07 07:29:52;;;;;;;12.32;5.53;;;;;;;11.15;100.00;163478.47;5070179;28;20097;-60
2022/11/07 07:32:18;;;;;;;16.58;6.53;;;;;;;11.02;100.00;163446.09;5069156;28;20041;-60
2022/11/07 07:34:43;;;;;;;31.70;5.50;;;;;;;11.13;100.00;163474.44;5069619;28;20024;-60
2022/11/07 07:37:08;;;;;;;19.25;5.03;;;;;;;11.15;100.00;163478.47;5069121;28;20036;-60
2022/11/07 07:39:34;;;;;;;13.18;4.72;;;;;;;11.20;100.00;163492.03;5070377;28;20021;-60
2022/11/07 07:41:59;;;;;;;14.77;4.40;;;;;;;11.17;100.00;163483.91;5067417;28;20491;-60
2022/11/07 07:44:24;;;;;;;16.10;4.68;;;;;;;11.13;100.00;163473.13;5070198;28;20382;-60
2022/11/07 07:46:50;;;;;;;15.40;4.35;;;;;;;11.21;100.00;163494.69;5049809;28;20095;-60
2022/11/07 07:49:15;;;;;;;10.23;3.80;;;;;;;11.28;100.00;163513.63;5050932;28;20028;-61
2022/11/07 07:51:40;;;;;;;27.67;6.80;;;;;;;11.31;100.00;163521.72;5065701;28;20037;-60
2022/11/07 07:54:06;;;;;;;18.70;5.47;;;;;;;11.30;100.00;163519.00;5074182;28;20385;-60
2022/11/07 07:56:31;;;;;;;9.35;4.60;;;;;;;11.35;100.00;163532.53;5072150;28;20032;-60
2022/11/07 07:58:56;;;;;;;15.13;5.68;;;;;;;11.41;100.00;163548.75;5073924;28;20031;-60
2022/11/07 08:01:22;;;;;;;19.08;4.63;;;;;;;11.42;100.00;163550.06;5072131;28;20032;-60
2022/11/07 08:03:48;;;;;;;15.07;3.70;;;;;;;11.46;100.00;163559.50;5073277;28;20016;-60
2022/11/07 08:06:13;;;;;;;18.35;5.55;;;;;;;11.46;100.00;163559.50;5072449;28;20048;-60
2022/11/07 08:08:39;;;;;;;13.40;4.53;;;;;;;11.52;100.00;163575.72;5067620;28;20487;-60
2022/11/07 08:11:07;;;;;;;12.30;5.35;;;;;;;11.52;100.00;163575.72;5053254;28;20021;-60
2022/11/07 08:13:33;;;;;;;9.38;4.38;;;;;;;11.53;100.00;163578.41;5052616;28;20033;-60
2022/11/07 08:16:02;;;;;;;9.30;4.28;;;;;;;11.56;100.00;163587.88;5053850;28;20024;-60
2022/11/07 08:18:27;;;;;;;15.85;5.25;;;;;;;11.54;100.00;163581.13;5051821;28;20542;-60
2022/11/07 08:20:55;;;;;;;11.35;4.22;;;;;;;11.56;100.00;163586.53;5053816;28;20032;-60
2022/11/07 08:23:21;;;;;;;12.75;4.25;;;;;;;11.63;100.00;163605.47;5051967;28;20037;-60
2022/11/07 08:25:52;;;;;;;11.88;4.88;;;;;;;11.74;100.00;163635.16;5053348;28;20021;-60
2022/11/07 08:28:19;;;;;;;9.65;3.78;;;;;;;11.80;100.00;163648.69;5052094;28;20495;-60
2022/11/07 08:30:44;;;;;;;21.55;6.53;;;;;;;11.82;100.00;163655.44;5053244;28;20489;-60
2022/11/07 08:33:10;;;;;;;12.82;3.80;;;;;;;11.85;100.00;163663.50;5051645;28;20048;-60
2022/11/07 08:35:35;;;;;;;15.32;4.72;;;;;;;11.88;100.00;163670.25;5053331;28;20222;-60
2022/11/07 08:38:00;;;;;;;14.32;5.05;;;;;;;11.89;100.00;163672.97;5051887;28;20040;-60
2022/11/07 08:40:26;;;;;;;16.13;3.85;;;;;;;11.90;100.00;163677.06;5052696;28;20017;-60
2022/11/07 08:42:51;;;;;;;15.30;4.38;;;;;;;11.97;100.00;163693.31;5051412;28;20041;-60
2022/11/07 08:45:17;;;;;;;8.95;4.35;;;;;;;11.96;100.00;163691.88;5053366;28;20035;-60
2022/11/07 08:47:42;;;;;;;10.95;4.93;;;;;;;12.02;100.00;163708.19;5051181;28;20041;-60
2022/11/07 08:50:08;;;;;;;11.52;4.05;;;;;;;12.08;100.00;163723.00;5053138;28;20028;-60
2022/11/07 08:52:34;;;;;;;15.10;4.78;;;;;;;12.04;100.00;163713.56;5051739;28;20036;-60
2022/11/07 08:55:00;;;;;;;13.55;5.38;;;;;;;12.03;100.00;163710.84;5053020;28;20110;-60
2022/11/07 08:57:26;;;;;;;14.27;4.22;;;;;;;12.08;100.00;163721.69;5051685;28;20037;-60
2022/11/07 08:59:51;;;;;;;21.70;5.63;;;;;;;12.11;100.00;163729.75;5052621;28;20025;-60
2022/11/07 09:02:16;;;;;;;11.13;4.78;;;;;;;12.14;100.00;163737.88;5051365;28;20033;-60
2022/11/07 09:04:41;;;;;;;20.80;5.68;;;;;;;12.15;100.00;163740.59;5052555;28;20407;-60
2022/11/07 09:07:07;;;;;;;14.23;5.18;;;;;;;12.15;100.00;163740.59;5051299;28;20045;-60
2022/11/07 09:09:32;;;;;;;9.73;4.25;;;;;;;12.15;100.00;163741.91;5052759;28;20032;-60
2022/11/07 09:11:57;;;;;;;18.50;4.80;;;;;;;12.22;100.00;163759.50;5051020;28;20044;-60
2022/11/07 09:14:23;;;;;;;12.27;4.43;;;;;;;12.26;100.00;163770.28;5052541;28;20029;-60
2022/11/07 09:16:48;;;;;;;11.93;4.00;;;;;;;12.38;100.00;163802.75;5050977;28;20399;-60
2022/11/07 09:19:13;;;;;;;21.83;6.63;;;;;;;12.51;100.00;163836.50;5052337;28;20029;-60
2022/11/07 09:21:39;;;;;;;10.52;3.63;;;;;;;12.64;100.00;163870.28;5050716;28;20033;-60
2022/11/07 09:24:05;;;;;;;15.15;5.50;;;;;;;12.68;100.00;163881.13;5052357;28;20033;-60
2022/11/07 09:26:30;;;;;;;10.90;4.70;;;;;;;12.72;100.00;163889.22;5051014;28;20061;-60
2022/11/07 09:28:55;;;;;;;14.05;4.38;;;;;;;12.72;100.00;163889.22;5060434;28;20495;-60
2022/11/07 09:31:21;;;;;;;13.02;3.85;;;;;;;12.78;100.00;163906.81;5070877;28;20428;-60
2022/11/07 09:33:46;;;;;;;13.65;3.90;;;;;;;12.81;100.00;163913.56;5071985;28;20031;-60
2022/11/07 09:36:12;;;;;;;19.58;6.15;;;;;;;12.90;100.00;163937.91;5070669;28;20021;-60
2022/11/07 09:38:37;;;;;;;16.95;6.53;;;;;;;12.90;100.00;163937.91;5071945;28;20042;-60
2022/11/07 09:41:24;;;;;;;17.92;6.70;;;;;;;12.97;100.00;163956.81;5071767;28;20032;-60
2022/11/07 09:43:59;;;;;;;10.43;3.78;;;;;;;13.35;100.00;164054.16;5070310;28;20083;-61
2022/11/07 09:46:42;;;;;;;9.27;3.42;;;;;;;13.40;100.00;164069.09;5065682;28;20024;-60
2022/11/07 09:49:22;;;;;;;10.23;4.43;;;;;;;13.46;100.00;164085.31;5051912;28;20033;-60
2022/11/07 09:52:31;;;;;;;8.70;3.72;;;;;;;13.46;100.00;164083.94;5050212;28;20037;-60
2022/11/07 09:55:19;;;;;;;10.45;4.75;;;;;;;13.45;100.00;164081.22;5051306;28;20025;-60
2022/11/07 09:57:44;;;;;;;6.90;4.07;;;;;;;13.54;100.00;164105.56;5049993;28;20029;-60
2022/11/07 10:00:18;;;;;;;10.02;3.97;;;;;;;13.56;100.00;164111.00;5051786;28;20028;-60
2022/11/07 10:02:51;;;;;;;9.88;4.57;;;;;;;13.63;100.00;164128.53;5049703;28;20388;-60
2022/11/07 10:05:37;;;;;;;34.10;4.80;;;;;;;13.57;100.00;164113.72;5054314;28;20058;-60
2022/11/07 10:08:10;;;;;;;15.75;5.15;;;;;;;13.35;100.00;164054.16;5047951;28;20037;-60
2022/11/07 10:10:44;;;;;;;11.63;4.28;;;;;;;13.15;100.00;164002.75;5068483;28;20024;-60
2022/11/07 10:13:39;;;;;;;12.70;4.15;;;;;;;13.16;100.00;164005.47;5069206;28;20051;-61
2022/11/07 10:16:29;;;;;;;10.75;3.60;;;;;;;13.16;100.00;164005.47;5070401;28;20167;-60
2022/11/07 10:19:21;;;;;;;13.18;3.88;;;;;;;13.27;100.00;164035.22;5069839;28;20045;-60
2022/11/07 10:22:35;;;;;;;15.45;4.97;;;;;;;13.28;100.00;164037.94;5069584;28;20043;-60
2022/11/07 10:25:17;;;;;;;15.45;6.13;;;;;;;13.22;100.00;164021.69;5052743;28;20478;-61
2022/11/07 10:27:46;;;;;;;16.02;4.95;;;;;;;13.30;100.00;164043.31;5049619;28;20409;-60
2022/11/07 10:30:18;;;;;;;18.25;4.38;;;;;;;13.41;100.00;164070.44;5054843;28;20095;-60
2022/11/07 10:33:10;;;;;;;19.33;5.13;;;;;;;13.45;100.00;164081.22;5068887;28;20572;-60
2022/11/07 10:35:41;;;;;;;14.77;3.78;;;;;;;13.45;100.00;164081.22;5070558;28;20074;-60
2022/11/07 10:38:23;;;;;;;19.08;6.28;;;;;;;13.65;100.00;164133.97;5069654;28;20403;-60
2022/11/07 10:40:50;;;;;;;10.38;4.80;;;;;;;13.68;100.00;164142.09;5070654;28;20032;-60
2022/11/07 10:43:27;;;;;;;25.05;6.60;;;;;;;13.79;100.00;164170.50;5069706;28;20036;-60
2022/11/07 10:45:54;;;;;;;12.68;4.93;;;;;;;13.84;100.00;164184.00;5069912;28;20471;-60
2022/11/07 10:48:19;;;;;;;6.95;3.30;;;;;;;13.80;100.00;164173.22;5069475;28;20045;-61
2022/11/07 10:50:55;;;;;;;14.57;4.45;;;;;;;13.77;100.00;164165.06;5071011;28;20340;-60
2022/11/07 10:53:22;;;;;;;17.20;4.93;;;;;;;13.83;100.00;164179.97;5069253;28;20052;-60
2022/11/07 10:55:49;;;;;;;10.00;3.45;;;;;;;13.82;100.00;164178.59;5069012;28;20375;-60
2022/11/07 10:58:19;;;;;;;10.88;4.63;;;;;;;13.84;100.00;164182.69;5069552;28;20529;-60
2022/11/07 11:00:56;;;;;;;17.52;4.65;;;;;;;13.75;100.00;164159.66;5069960;28;20475;-60
2022/11/07 11:03:41;;;;;;;8.00;5.25;;;;;;;13.80;100.00;164174.53;5069058;28;20040;-60
2022/11/07 11:06:31;;;;;;;16.58;5.97;;;;;;;13.78;100.00;164167.78;5069256;28;20147;-59
2022/11/07 11:08:57;;;;;;;12.85;5.25;;;;;;;13.77;100.00;164165.06;5070016;28;20086;-60
2022/11/07 11:11:27;;;;;;;6.82;3.03;;;;;;;13.69;100.00;164143.44;5069459;28;20024;-60
2022/11/07 11:14:07;;;;;;;14.50;7.03;;;;;;;13.57;100.00;164113.72;5070488;28;20033;-60
2022/11/07 11:16:36;;;;;;;24.70;5.47;;;;;;;13.56;100.00;164109.63;5059192;28;20040;-60
2022/11/07 11:19:02;;;;;;;;;;;;;;;13.48;100.00;164089.34;5071501;28;20017;-60
2022/11/07 11:21:39;;;;;;;14.88;3.53;;;;;;;13.41;100.00;164070.44;5069181;28;19912;-60
2022/11/07 11:24:13;;;;;;;12.18;4.63;;;;;;;13.40;100.00;164067.72;5072644;28;20093;-60
2022/11/07 11:26:42;;;;;;;11.68;3.53;;;;;;;13.38;100.00;164062.25;5072968;28;20037;-60
2022/11/07 11:29:13;;;;;;;18.50;6.38;;;;;;;13.44;100.00;164078.56;5074621;28;20055;-60